createdAt,value
2019-05-23T00:02:02.052Z,8.62
2019-05-23T00:06:35.785Z,8.58
2019-05-23T00:11:16.359Z,8.45
2019-05-23T00:15:35.097Z,8.30
2019-05-23T00:19:40.376Z,8.25
2019-05-23T00:23:45.355Z,8.29
2019-05-23T00:27:53.021Z,8.35
2019-05-23T00:32:09.534Z,8.43
2019-05-23T00:36:15.861Z,8.41
2019-05-23T00:40:21.599Z,8.43
2019-05-23T00:44:28.390Z,8.34
2019-05-23T00:48:34.586Z,8.41
2019-05-23T00:52:42.589Z,8.30
2019-05-23T00:56:48.044Z,8.17
2019-05-23T01:00:53.973Z,8.07
2019-05-23T01:04:59.177Z,8.08
2019-05-23T01:09:07.011Z,8.14
2019-05-23T01:13:14.201Z,8.10
2019-05-23T01:17:20.988Z,8.03
2019-05-23T01:21:39.507Z,7.95
2019-05-23T01:25:44.963Z,7.88
2019-05-23T01:29:51.123Z,7.81
2019-05-23T01:33:57.641Z,7.77
2019-05-23T01:38:04.387Z,7.73
2019-05-23T01:42:09.946Z,7.79
2019-05-23T01:46:15.012Z,7.87
2019-05-23T01:50:23.371Z,7.93
2019-05-23T01:54:28.932Z,8.02
2019-05-23T01:58:34.833Z,8.04
2019-05-23T02:02:39.822Z,8.08
2019-05-23T02:06:45.161Z,8.02
2019-05-23T02:10:50.880Z,7.99
2019-05-23T02:14:56.777Z,8.05
2019-05-23T02:19:02.064Z,8.07
2019-05-23T02:23:07.362Z,8.09
2019-05-23T02:27:13.883Z,8.10
2019-05-23T02:31:19.891Z,8.10
2019-05-23T02:35:24.919Z,8.03
2019-05-23T02:39:37.329Z,7.71
2019-05-23T02:43:43.833Z,7.56
2019-05-23T02:47:49.871Z,7.56
2019-05-23T02:51:56.863Z,7.64
2019-05-23T02:56:05.533Z,7.60
2019-05-23T03:00:52.074Z,7.59
2019-05-23T03:04:40.528Z,7.67
2019-05-23T03:08:46.096Z,7.59
2019-05-23T03:12:52.674Z,7.44
2019-05-23T03:16:59.826Z,7.50
2019-05-23T03:21:05.726Z,7.55
2019-05-23T03:25:39.120Z,7.58
2019-05-23T03:29:44.848Z,7.59
2019-05-23T03:33:50.223Z,7.66
2019-05-23T03:37:56.232Z,7.64
2019-05-23T03:42:02.188Z,7.67
2019-05-23T03:46:14.537Z,7.56
2019-05-23T03:50:20.470Z,7.53
2019-05-23T03:54:27.602Z,7.56
2019-05-23T03:58:33.354Z,7.69
2019-05-23T04:02:39.666Z,7.82
2019-05-23T04:06:45.080Z,7.95
2019-05-23T04:10:52.039Z,8.16
2019-05-23T04:14:57.237Z,8.46
2019-05-23T04:19:02.114Z,8.74
2019-05-23T04:23:07.385Z,9.20
2019-05-23T04:27:12.896Z,9.52
2019-05-23T04:31:17.796Z,10.24
2019-05-23T04:35:22.694Z,11.14
2019-05-23T04:39:27.920Z,12.10
2019-05-23T04:43:32.822Z,12.17
2019-05-23T04:47:38.309Z,12.42
2019-05-23T04:51:43.197Z,13.04
2019-05-23T04:55:48.414Z,13.86
2019-05-23T04:59:53.304Z,14.68
2019-05-23T05:03:58.740Z,15.40
2019-05-23T05:08:04.021Z,15.60
2019-05-23T05:12:09.888Z,15.26
2019-05-23T05:16:14.960Z,16.25
2019-05-23T05:20:21.109Z,17.25
2019-05-23T05:24:25.992Z,18.41
2019-05-23T05:28:31.019Z,19.28
2019-05-23T05:32:45.007Z,19.72
2019-05-23T05:36:43.051Z,19.53
2019-05-23T05:40:48.005Z,19.59
2019-05-23T05:44:52.896Z,19.97
2019-05-23T05:48:58.709Z,21.03
2019-05-23T05:53:05.018Z,22.06
2019-05-23T05:57:09.989Z,23.10
2019-05-23T06:01:31.168Z,24.03
2019-05-23T06:05:32.859Z,23.85
2019-05-23T06:09:38.837Z,24.20
2019-05-23T06:13:44.271Z,25.13
2019-05-23T06:17:50.336Z,26.28
2019-05-23T06:21:55.890Z,27.10
2019-05-23T06:26:00.869Z,27.17
2019-05-23T06:30:09.338Z,26.89
2019-05-23T06:34:15.061Z,26.43
2019-05-23T06:38:20.020Z,26.80
2019-05-23T06:42:25.525Z,26.95
2019-05-23T06:46:30.765Z,26.77
2019-05-23T06:50:35.819Z,27.43
2019-05-23T06:54:40.796Z,27.97
2019-05-23T06:58:45.762Z,28.90
2019-05-23T07:02:50.665Z,29.57
2019-05-23T07:06:55.635Z,30.02
2019-05-23T07:11:00.521Z,28.32
2019-05-23T07:15:09.231Z,25.92
2019-05-23T07:19:14.644Z,24.43
2019-05-23T07:23:20.028Z,23.46
2019-05-23T07:27:26.167Z,22.79
2019-05-23T07:31:35.451Z,22.23
2019-05-23T07:35:38.399Z,22.09
2019-05-23T07:39:43.382Z,21.99
2019-05-23T07:43:48.509Z,21.86
2019-05-23T07:47:53.497Z,21.86
2019-05-23T07:51:58.363Z,21.82
2019-05-23T08:00:18.718Z,21.84
2019-05-23T08:04:24.050Z,21.67
2019-05-23T08:08:28.955Z,21.46
2019-05-23T08:12:33.924Z,21.35
2019-05-23T08:16:39.081Z,21.19
2019-05-23T08:20:45.749Z,21.37
2019-05-23T08:24:51.443Z,21.44
2019-05-23T08:29:23.772Z,21.43
2019-05-23T08:33:05.107Z,21.52
2019-05-23T08:37:11.515Z,21.76
2019-05-23T08:41:17.383Z,21.95
2019-05-23T08:45:22.553Z,22.09
2019-05-23T08:49:27.614Z,22.28
2019-05-23T08:53:32.880Z,22.42
2019-05-23T08:57:38.775Z,22.36
2019-05-23T09:01:43.982Z,22.28
2019-05-23T09:05:50.220Z,22.31
2019-05-23T09:09:55.468Z,22.07
2019-05-23T09:14:01.884Z,21.70
2019-05-23T09:18:06.844Z,21.54
2019-05-23T09:22:12.832Z,21.47
2019-05-23T09:26:17.718Z,21.31
2019-05-23T09:30:23.634Z,21.29
2019-05-23T09:34:29.077Z,21.26
2019-05-23T09:38:33.960Z,21.25
2019-05-23T09:42:38.929Z,21.35
2019-05-23T09:46:43.855Z,21.51
2019-05-23T09:50:48.744Z,21.77
2019-05-23T09:54:53.814Z,21.87
2019-05-23T09:58:58.702Z,21.82
2019-05-23T10:03:04.666Z,21.91
2019-05-23T10:07:09.653Z,22.12
2019-05-23T10:11:14.616Z,22.18
2019-05-23T10:15:40.482Z,22.42
2019-05-23T10:19:46.347Z,22.61
2019-05-23T10:23:51.320Z,22.69
2019-05-23T10:27:56.206Z,22.66
2019-05-23T10:32:01.106Z,22.71
2019-05-23T10:36:06.174Z,22.91
2019-05-23T10:40:11.308Z,23.17
2019-05-23T10:44:17.034Z,23.40
2019-05-23T10:48:23.279Z,23.55
2019-05-23T10:52:28.354Z,23.67
2019-05-23T10:56:33.454Z,23.75
2019-05-23T11:00:39.293Z,23.91
2019-05-23T11:04:44.249Z,23.87
2019-05-23T11:08:49.233Z,23.82
2019-05-23T11:12:54.265Z,23.88
2019-05-23T11:16:59.537Z,23.86
2019-05-23T11:21:05.180Z,23.86
2019-05-23T11:25:13.442Z,24.00
2019-05-23T11:29:18.361Z,24.11
2019-05-23T11:33:25.193Z,24.23
2019-05-23T11:37:30.265Z,24.04
2019-05-23T11:41:36.491Z,23.97
2019-05-23T11:45:46.180Z,23.90
2019-05-23T11:49:50.121Z,24.05
2019-05-23T11:54:07.101Z,23.99
2019-05-23T11:58:01.813Z,24.01
2019-05-23T12:02:09.484Z,24.05
2019-05-23T12:06:16.016Z,24.29
2019-05-23T12:10:20.977Z,24.39
2019-05-23T12:14:25.955Z,24.27
2019-05-23T12:18:30.922Z,24.20
2019-05-23T12:22:36.022Z,24.15
2019-05-23T12:26:41.069Z,24.22
2019-05-23T12:30:46.226Z,24.23
2019-05-23T12:35:08.499Z,24.06
2019-05-23T12:38:57.728Z,23.99
2019-05-23T12:43:02.773Z,23.68
2019-05-23T12:47:09.279Z,23.50
2019-05-23T12:51:15.883Z,23.70
2019-05-23T12:55:20.843Z,23.81
2019-05-23T12:59:26.376Z,24.03
2019-05-23T13:03:33.168Z,24.21
2019-05-23T13:07:38.196Z,24.34
2019-05-23T13:11:43.033Z,24.49
2019-05-23T13:15:48.400Z,24.64
2019-05-23T13:19:53.303Z,24.69
2019-05-23T13:23:59.173Z,24.66
2019-05-23T13:28:04.484Z,24.46
2019-05-23T13:32:09.491Z,24.13
2019-05-23T13:36:14.394Z,23.94
2019-05-23T13:40:19.631Z,23.69
2019-05-23T13:44:33.918Z,23.58
2019-05-23T13:48:31.134Z,23.50
2019-05-23T13:52:36.291Z,23.44
2019-05-23T13:56:41.320Z,23.44
2019-05-23T14:00:46.321Z,23.37
2019-05-23T14:04:51.301Z,23.39
2019-05-23T14:08:56.269Z,23.30
2019-05-23T14:13:01.176Z,23.21
2019-05-23T14:17:07.711Z,23.20
2019-05-23T14:21:13.120Z,23.10
2019-05-23T14:25:18.584Z,23.12
2019-05-23T14:29:24.355Z,23.16
2019-05-23T14:33:30.929Z,23.10
2019-05-23T14:37:49.511Z,22.99
2019-05-23T14:42:08.272Z,22.92
2019-05-23T14:46:14.812Z,22.92
2019-05-23T14:50:21.622Z,22.90
2019-05-23T14:54:28.177Z,22.92
2019-05-23T14:58:33.235Z,22.95
2019-05-23T15:02:38.808Z,23.01
2019-05-23T15:06:43.791Z,23.07
2019-05-23T15:10:48.766Z,23.03
2019-05-23T15:14:53.669Z,23.03
2019-05-23T15:18:58.967Z,22.97
2019-05-23T15:23:03.818Z,22.90
2019-05-23T15:27:08.792Z,22.81
2019-05-23T15:31:14.070Z,22.77
2019-05-23T15:35:19.139Z,22.75
2019-05-23T15:39:25.202Z,22.71
2019-05-23T15:43:30.118Z,22.73
2019-05-23T15:47:36.429Z,22.80
2019-05-23T15:51:55.002Z,22.76
2019-05-23T15:56:24.143Z,22.82
2019-05-23T16:00:18.641Z,22.95
2019-05-23T16:04:24.805Z,23.10
2019-05-23T16:08:29.766Z,23.17
2019-05-23T16:12:34.669Z,23.17
2019-05-23T16:16:40.430Z,23.15
2019-05-23T16:20:45.324Z,23.07
2019-05-23T16:24:50.216Z,22.91
2019-05-23T16:28:55.193Z,22.75
2019-05-23T16:33:01.194Z,22.62
2019-05-23T16:37:06.174Z,22.59
2019-05-23T16:41:11.767Z,22.65
2019-05-23T16:45:16.905Z,22.76
2019-05-23T16:49:21.822Z,22.88
2019-05-23T16:53:28.086Z,22.97
2019-05-23T16:57:40.584Z,22.91
2019-05-23T17:02:06.573Z,22.78
2019-05-23T17:06:23.636Z,22.66
2019-05-23T17:10:33.189Z,22.52
2019-05-23T17:14:39.799Z,22.46
2019-05-23T17:18:54.996Z,22.32
2019-05-23T17:23:17.924Z,22.28
2019-05-23T17:27:30.298Z,22.25
2019-05-23T17:31:40.783Z,22.17
2019-05-23T17:35:45.673Z,22.06
2019-05-23T17:39:53.404Z,21.94
2019-05-23T17:43:58.784Z,21.85
2019-05-23T17:48:04.399Z,21.79
2019-05-23T17:52:09.735Z,21.66
2019-05-23T17:56:14.693Z,21.53
2019-05-23T18:00:21.296Z,21.44
2019-05-23T18:04:26.265Z,21.28
2019-05-23T18:08:31.696Z,21.15
2019-05-23T18:12:36.664Z,21.02
2019-05-23T18:16:41.919Z,20.89
2019-05-23T18:20:47.252Z,20.76
2019-05-23T18:24:52.620Z,20.64
2019-05-23T18:28:58.170Z,20.51
2019-05-23T18:33:04.989Z,20.41
2019-05-23T18:37:10.312Z,20.28
2019-05-23T18:41:16.054Z,20.14
2019-05-23T18:45:21.092Z,20.02
2019-05-23T18:49:27.019Z,19.85
2019-05-23T18:53:31.991Z,19.69
2019-05-23T18:57:37.894Z,19.56
2019-05-23T19:01:42.866Z,19.40
2019-05-23T19:05:48.006Z,19.25
2019-05-23T19:09:53.184Z,19.13
2019-05-23T19:13:58.111Z,18.99
2019-05-23T19:18:04.542Z,18.86
2019-05-23T19:22:09.708Z,18.71
2019-05-23T19:26:15.646Z,18.48
2019-05-23T19:30:20.725Z,18.22
2019-05-23T19:34:25.767Z,18.02
2019-05-23T19:38:32.434Z,17.72
2019-05-23T19:42:38.527Z,17.39
2019-05-23T19:46:44.568Z,17.09
2019-05-23T19:50:50.407Z,16.76
2019-05-23T19:54:55.368Z,16.49
2019-05-23T19:59:00.449Z,16.30
2019-05-23T20:03:06.719Z,16.13
2019-05-23T20:07:15.374Z,15.83
2019-05-23T20:11:18.496Z,15.61
2019-05-23T20:15:23.979Z,15.45
2019-05-23T20:19:29.129Z,15.44
2019-05-23T20:23:34.008Z,15.49
2019-05-23T20:27:38.910Z,15.43
2019-05-23T20:31:44.032Z,15.40
2019-05-23T20:35:49.591Z,15.40
2019-05-23T20:39:54.922Z,15.29
2019-05-23T20:43:59.955Z,15.11
2019-05-23T20:48:06.199Z,14.88
2019-05-23T20:52:11.269Z,14.71
2019-05-23T20:56:16.159Z,14.53
2019-05-23T21:00:28.472Z,14.46
2019-05-23T21:04:33.624Z,14.36
2019-05-23T21:08:38.519Z,14.24
2019-05-23T21:12:43.419Z,14.29
2019-05-23T21:16:48.317Z,14.29
2019-05-23T21:20:53.215Z,14.18
2019-05-23T21:24:58.122Z,14.14
2019-05-23T21:29:03.127Z,14.14
2019-05-23T21:33:09.420Z,14.20
2019-05-23T21:37:14.883Z,14.22
2019-05-23T21:41:19.795Z,14.06
2019-05-23T21:45:24.683Z,13.87
2019-05-23T21:49:29.644Z,13.87
2019-05-23T21:53:34.613Z,13.79
2019-05-23T21:57:39.513Z,13.73
2019-05-23T22:01:49.255Z,13.73
2019-05-23T22:05:54.148Z,13.75
2019-05-23T22:10:00.077Z,13.69
2019-05-23T22:14:05.590Z,13.55
2019-05-23T22:18:10.488Z,13.55
2019-05-23T22:22:15.391Z,13.53
2019-05-23T22:26:20.362Z,13.39
2019-05-23T22:30:25.322Z,13.28
2019-05-23T22:34:32.124Z,13.16
2019-05-23T22:38:38.467Z,12.93
2019-05-23T22:42:43.362Z,12.76
2019-05-23T22:46:48.526Z,12.66
2019-05-23T22:50:53.416Z,12.60
2019-05-23T22:54:58.309Z,12.61
2019-05-23T22:59:03.476Z,12.63
2019-05-23T23:03:08.372Z,12.58
2019-05-23T23:07:13.537Z,12.45
2019-05-23T23:11:18.417Z,12.34
2019-05-23T23:15:24.196Z,12.22
2019-05-23T23:19:29.098Z,12.18
2019-05-23T23:23:33.977Z,12.19
2019-05-23T23:27:38.872Z,12.16
2019-05-23T23:31:44.033Z,12.06
2019-05-23T23:35:48.929Z,12.02
2019-05-23T23:39:53.826Z,11.90
2019-05-23T23:44:00.122Z,11.75
2019-05-23T23:48:22.845Z,11.69
2019-05-23T23:52:45.708Z,11.52
2019-05-23T23:57:09.779Z,11.52
